sensor_id;sensor_type;location;lat;lon;timestamp;temperature;humidity
14057;DHT22;7103;54.300;10.180;2022-08-19T00:00:31;19.20;99.90
14057;DHT22;7103;54.300;10.180;2022-08-19T00:02:58;19.30;99.90
14057;DHT22;7103;54.300;10.180;2022-08-19T00:05:25;19.20;99.90
14057;DHT22;7103;54.300;10.180;2022-08-19T00:07:52;19.20;99.90
14057;DHT22;7103;54.300;10.180;2022-08-19T00:10:20;19.20;99.90
14057;DHT22;7103;54.300;10.180;2022-08-19T00:12:47;19.20;99.90
14057;DHT22;7103;54.300;10.180;2022-08-19T00:15:16;19.20;99.90
14057;DHT22;7103;54.300;10.180;2022-08-19T00:17:44;19.10;99.90
14057;DHT22;7103;54.300;10.180;2022-08-19T00:20:13;19.20;99.90
14057;DHT22;7103;54.300;10.180;2022-08-19T00:22:40;19.10;99.90
14057;DHT22;7103;54.300;10.180;2022-08-19T00:25:08;19.10;99.90
14057;DHT22;7103;54.300;10.180;2022-08-19T00:27:35;19.20;99.90
14057;DHT22;7103;54.300;10.180;2022-08-19T00:30:04;19.20;99.90
14057;DHT22;7103;54.300;10.180;2022-08-19T00:32:31;19.20;99.90
14057;DHT22;7103;54.300;10.180;2022-08-19T00:35:00;19.20;99.90
14057;DHT22;7103;54.300;10.180;2022-08-19T00:37:27;19.20;99.90
14057;DHT22;7103;54.300;10.180;2022-08-19T00:39:54;19.20;99.90
14057;DHT22;7103;54.300;10.180;2022-08-19T00:42:22;19.20;99.90
14057;DHT22;7103;54.300;10.180;2022-08-19T00:44:49;19.20;99.90
14057;DHT22;7103;54.300;10.180;2022-08-19T00:47:17;19.20;99.90
14057;DHT22;7103;54.300;10.180;2022-08-19T00:49:50;19.20;99.90
14057;DHT22;7103;54.300;10.180;2022-08-19T00:52:25;19.20;99.90
14057;DHT22;7103;54.300;10.180;2022-08-19T00:54:57;19.20;99.90
14057;DHT22;7103;54.300;10.180;2022-08-19T00:57:29;19.20;99.90
14057;DHT22;7103;54.300;10.180;2022-08-19T00:59:58;19.20;99.90
14057;DHT22;7103;54.300;10.180;2022-08-19T01:02:30;19.10;99.90
14057;DHT22;7103;54.300;10.180;2022-08-19T01:04:57;19.10;99.90
14057;DHT22;7103;54.300;10.180;2022-08-19T01:07:24;19.20;99.90
14057;DHT22;7103;54.300;10.180;2022-08-19T01:09:51;19.20;99.90
14057;DHT22;7103;54.300;10.180;2022-08-19T01:12:19;19.20;99.90
14057;DHT22;7103;54.300;10.180;2022-08-19T01:14:46;19.20;99.90
14057;DHT22;7103;54.300;10.180;2022-08-19T01:17:15;19.20;99.90
14057;DHT22;7103;54.300;10.180;2022-08-19T01:19:43;19.20;99.90
14057;DHT22;7103;54.300;10.180;2022-08-19T01:22:54;19.20;99.90
14057;DHT22;7103;54.300;10.180;2022-08-19T01:25:22;19.20;99.90
14057;DHT22;7103;54.300;10.180;2022-08-19T01:27:52;19.20;99.90
14057;DHT22;7103;54.300;10.180;2022-08-19T01:30:25;19.20;99.90
14057;DHT22;7103;54.300;10.180;2022-08-19T01:32:54;19.20;99.90
14057;DHT22;7103;54.300;10.180;2022-08-19T01:35:23;19.10;99.90
14057;DHT22;7103;54.300;10.180;2022-08-19T01:37:54;19.20;99.90
14057;DHT22;7103;54.300;10.180;2022-08-19T01:40:24;19.10;99.90
14057;DHT22;7103;54.300;10.180;2022-08-19T01:42:52;19.10;99.90
14057;DHT22;7103;54.300;10.180;2022-08-19T01:45:22;19.20;99.90
14057;DHT22;7103;54.300;10.180;2022-08-19T01:47:49;19.20;99.90
14057;DHT22;7103;54.300;10.180;2022-08-19T01:50:26;19.10;99.90
14057;DHT22;7103;54.300;10.180;2022-08-19T01:52:54;19.20;99.90
14057;DHT22;7103;54.300;10.180;2022-08-19T01:55:35;19.20;99.90
14057;DHT22;7103;54.300;10.180;2022-08-19T01:58:11;19.20;99.90
14057;DHT22;7103;54.300;10.180;2022-08-19T02:00:39;19.20;99.90
14057;DHT22;7103;54.300;10.180;2022-08-19T02:03:06;19.20;99.90
14057;DHT22;7103;54.300;10.180;2022-08-19T02:05:33;19.30;99.90
14057;DHT22;7103;54.300;10.180;2022-08-19T02:08:00;19.30;99.90
14057;DHT22;7103;54.300;10.180;2022-08-19T02:10:27;19.20;99.90
14057;DHT22;7103;54.300;10.180;2022-08-19T02:12:54;19.20;99.90
14057;DHT22;7103;54.300;10.180;2022-08-19T02:15:22;19.20;99.90
14057;DHT22;7103;54.300;10.180;2022-08-19T02:17:49;19.10;99.90
14057;DHT22;7103;54.300;10.180;2022-08-19T02:20:16;19.20;99.90
14057;DHT22;7103;54.300;10.180;2022-08-19T02:22:43;19.20;99.90
14057;DHT22;7103;54.300;10.180;2022-08-19T02:25:14;19.10;99.90
14057;DHT22;7103;54.300;10.180;2022-08-19T02:27:42;19.20;99.90
14057;DHT22;7103;54.300;10.180;2022-08-19T02:30:15;19.10;99.90
14057;DHT22;7103;54.300;10.180;2022-08-19T02:32:43;19.10;99.90
14057;DHT22;7103;54.300;10.180;2022-08-19T02:35:12;19.00;99.90
14057;DHT22;7103;54.300;10.180;2022-08-19T02:37:41;19.00;99.90
14057;DHT22;7103;54.300;10.180;2022-08-19T02:40:28;19.00;99.90
14057;DHT22;7103;54.300;10.180;2022-08-19T02:42:56;19.00;99.90
14057;DHT22;7103;54.300;10.180;2022-08-19T02:45:22;19.00;99.90
14057;DHT22;7103;54.300;10.180;2022-08-19T02:47:49;19.00;99.90
14057;DHT22;7103;54.300;10.180;2022-08-19T02:50:16;19.00;99.90
14057;DHT22;7103;54.300;10.180;2022-08-19T02:52:44;19.10;99.90
14057;DHT22;7103;54.300;10.180;2022-08-19T02:55:12;19.00;99.90
14057;DHT22;7103;54.300;10.180;2022-08-19T02:57:38;19.00;99.90
14057;DHT22;7103;54.300;10.180;2022-08-19T03:00:07;19.00;99.90
14057;DHT22;7103;54.300;10.180;2022-08-19T03:02:35;18.90;99.90
14057;DHT22;7103;54.300;10.180;2022-08-19T03:05:03;18.90;99.90
14057;DHT22;7103;54.300;10.180;2022-08-19T03:07:30;19.00;99.90
14057;DHT22;7103;54.300;10.180;2022-08-19T03:09:58;19.10;99.90
14057;DHT22;7103;54.300;10.180;2022-08-19T03:12:25;19.00;99.90
14057;DHT22;7103;54.300;10.180;2022-08-19T03:14:51;19.00;99.90
14057;DHT22;7103;54.300;10.180;2022-08-19T03:17:19;19.00;99.90
14057;DHT22;7103;54.300;10.180;2022-08-19T03:19:46;19.00;99.90
14057;DHT22;7103;54.300;10.180;2022-08-19T03:22:13;19.00;99.90
14057;DHT22;7103;54.300;10.180;2022-08-19T03:24:40;19.00;99.90
14057;DHT22;7103;54.300;10.180;2022-08-19T03:27:07;19.00;99.90
14057;DHT22;7103;54.300;10.180;2022-08-19T03:29:37;19.00;99.90
14057;DHT22;7103;54.300;10.180;2022-08-19T03:32:10;19.10;99.90
14057;DHT22;7103;54.300;10.180;2022-08-19T03:34:57;19.00;99.90
14057;DHT22;7103;54.300;10.180;2022-08-19T03:37:50;19.00;99.90
14057;DHT22;7103;54.300;10.180;2022-08-19T03:40:17;19.10;99.90
14057;DHT22;7103;54.300;10.180;2022-08-19T03:42:45;19.10;99.90
14057;DHT22;7103;54.300;10.180;2022-08-19T03:45:15;19.10;99.90
14057;DHT22;7103;54.300;10.180;2022-08-19T03:47:42;19.00;99.90
14057;DHT22;7103;54.300;10.180;2022-08-19T03:50:09;19.00;99.90
14057;DHT22;7103;54.300;10.180;2022-08-19T03:52:36;19.00;99.90
14057;DHT22;7103;54.300;10.180;2022-08-19T03:55:03;18.90;99.90
14057;DHT22;7103;54.300;10.180;2022-08-19T03:57:30;18.80;99.90
14057;DHT22;7103;54.300;10.180;2022-08-19T03:59:58;18.80;99.90
14057;DHT22;7103;54.300;10.180;2022-08-19T04:02:40;18.80;99.90
14057;DHT22;7103;54.300;10.180;2022-08-19T04:05:24;18.90;99.90
14057;DHT22;7103;54.300;10.180;2022-08-19T04:07:54;18.90;99.90
14057;DHT22;7103;54.300;10.180;2022-08-19T04:10:24;18.90;99.90
14057;DHT22;7103;54.300;10.180;2022-08-19T04:12:51;18.90;99.90
14057;DHT22;7103;54.300;10.180;2022-08-19T04:15:18;18.90;99.90
14057;DHT22;7103;54.300;10.180;2022-08-19T04:17:46;18.90;99.90
14057;DHT22;7103;54.300;10.180;2022-08-19T04:20:13;18.90;99.90
14057;DHT22;7103;54.300;10.180;2022-08-19T04:22:39;18.90;99.90
14057;DHT22;7103;54.300;10.180;2022-08-19T04:25:06;19.00;99.90
14057;DHT22;7103;54.300;10.180;2022-08-19T04:27:33;19.00;99.90
14057;DHT22;7103;54.300;10.180;2022-08-19T04:30:00;19.00;99.90
14057;DHT22;7103;54.300;10.180;2022-08-19T04:32:28;19.00;99.90
14057;DHT22;7103;54.300;10.180;2022-08-19T04:34:54;19.00;99.90
14057;DHT22;7103;54.300;10.180;2022-08-19T04:37:42;19.00;99.90
14057;DHT22;7103;54.300;10.180;2022-08-19T04:40:09;19.00;99.90
14057;DHT22;7103;54.300;10.180;2022-08-19T04:42:55;19.00;99.90
14057;DHT22;7103;54.300;10.180;2022-08-19T04:45:23;19.00;99.90
14057;DHT22;7103;54.300;10.180;2022-08-19T04:47:53;19.00;99.90
14057;DHT22;7103;54.300;10.180;2022-08-19T04:50:43;19.10;99.90
14057;DHT22;7103;54.300;10.180;2022-08-19T04:53:10;19.10;99.90
14057;DHT22;7103;54.300;10.180;2022-08-19T04:55:42;19.20;99.90
14057;DHT22;7103;54.300;10.180;2022-08-19T04:58:09;19.20;99.90
14057;DHT22;7103;54.300;10.180;2022-08-19T05:00:38;19.20;99.90
14057;DHT22;7103;54.300;10.180;2022-08-19T05:03:06;19.20;99.90
14057;DHT22;7103;54.300;10.180;2022-08-19T05:05:33;19.20;99.90
14057;DHT22;7103;54.300;10.180;2022-08-19T05:08:12;19.30;99.90
14057;DHT22;7103;54.300;10.180;2022-08-19T05:10:41;19.20;99.90
14057;DHT22;7103;54.300;10.180;2022-08-19T05:13:07;19.20;99.90
14057;DHT22;7103;54.300;10.180;2022-08-19T05:15:37;19.20;99.90
14057;DHT22;7103;54.300;10.180;2022-08-19T05:18:04;19.20;99.90
14057;DHT22;7103;54.300;10.180;2022-08-19T05:20:49;19.20;99.90
14057;DHT22;7103;54.300;10.180;2022-08-19T05:23:34;19.30;99.90
14057;DHT22;7103;54.300;10.180;2022-08-19T05:26:01;19.30;99.90
14057;DHT22;7103;54.300;10.180;2022-08-19T05:28:28;19.30;99.90
14057;DHT22;7103;54.300;10.180;2022-08-19T05:30:56;19.30;99.90
14057;DHT22;7103;54.300;10.180;2022-08-19T05:33:23;19.30;99.90
14057;DHT22;7103;54.300;10.180;2022-08-19T05:35:50;19.30;99.90
14057;DHT22;7103;54.300;10.180;2022-08-19T05:38:18;19.30;99.90
14057;DHT22;7103;54.300;10.180;2022-08-19T05:40:45;19.30;99.90
14057;DHT22;7103;54.300;10.180;2022-08-19T05:43:13;19.30;99.90
14057;DHT22;7103;54.300;10.180;2022-08-19T05:45:44;19.30;99.90
14057;DHT22;7103;54.300;10.180;2022-08-19T05:48:12;19.30;99.90
14057;DHT22;7103;54.300;10.180;2022-08-19T05:50:40;19.30;99.90
14057;DHT22;7103;54.300;10.180;2022-08-19T05:53:08;19.40;99.90
14057;DHT22;7103;54.300;10.180;2022-08-19T05:55:35;19.30;99.90
14057;DHT22;7103;54.300;10.180;2022-08-19T05:58:04;19.30;99.90
14057;DHT22;7103;54.300;10.180;2022-08-19T06:00:35;19.30;99.90
14057;DHT22;7103;54.300;10.180;2022-08-19T06:03:03;19.30;99.90
14057;DHT22;7103;54.300;10.180;2022-08-19T06:05:39;19.30;99.90
14057;DHT22;7103;54.300;10.180;2022-08-19T06:08:17;19.30;99.90
14057;DHT22;7103;54.300;10.180;2022-08-19T06:10:45;19.40;99.90
14057;DHT22;7103;54.300;10.180;2022-08-19T06:13:11;19.30;99.90
14057;DHT22;7103;54.300;10.180;2022-08-19T06:15:38;19.40;99.90
14057;DHT22;7103;54.300;10.180;2022-08-19T06:18:05;19.40;99.90
14057;DHT22;7103;54.300;10.180;2022-08-19T06:20:32;19.50;99.90
14057;DHT22;7103;54.300;10.180;2022-08-19T06:23:19;19.40;99.90
14057;DHT22;7103;54.300;10.180;2022-08-19T06:25:49;19.40;99.90
14057;DHT22;7103;54.300;10.180;2022-08-19T06:28:16;19.40;99.90
14057;DHT22;7103;54.300;10.180;2022-08-19T06:30:44;19.50;99.90
14057;DHT22;7103;54.300;10.180;2022-08-19T06:33:11;19.50;99.90
14057;DHT22;7103;54.300;10.180;2022-08-19T06:35:39;19.60;99.90
14057;DHT22;7103;54.300;10.180;2022-08-19T06:38:06;19.70;99.90
14057;DHT22;7103;54.300;10.180;2022-08-19T06:40:33;19.70;99.90
14057;DHT22;7103;54.300;10.180;2022-08-19T06:43:02;19.80;99.90
14057;DHT22;7103;54.300;10.180;2022-08-19T06:45:32;19.90;99.90
14057;DHT22;7103;54.300;10.180;2022-08-19T06:48:01;20.10;99.90
14057;DHT22;7103;54.300;10.180;2022-08-19T06:50:29;20.10;99.90
14057;DHT22;7103;54.300;10.180;2022-08-19T06:52:55;20.10;99.90
14057;DHT22;7103;54.300;10.180;2022-08-19T06:55:23;20.00;99.90
14057;DHT22;7103;54.300;10.180;2022-08-19T06:57:50;20.10;99.90
14057;DHT22;7103;54.300;10.180;2022-08-19T07:00:20;20.10;99.90
14057;DHT22;7103;54.300;10.180;2022-08-19T07:02:47;20.20;99.90
14057;DHT22;7103;54.300;10.180;2022-08-19T07:05:23;20.30;99.90
14057;DHT22;7103;54.300;10.180;2022-08-19T07:07:50;20.40;99.90
14057;DHT22;7103;54.300;10.180;2022-08-19T07:10:17;20.50;99.90
14057;DHT22;7103;54.300;10.180;2022-08-19T07:12:45;20.60;99.90
14057;DHT22;7103;54.300;10.180;2022-08-19T07:15:12;20.70;99.90
14057;DHT22;7103;54.300;10.180;2022-08-19T07:17:39;20.90;99.90
14057;DHT22;7103;54.300;10.180;2022-08-19T07:20:09;21.00;99.90
14057;DHT22;7103;54.300;10.180;2022-08-19T07:22:39;21.10;99.90
14057;DHT22;7103;54.300;10.180;2022-08-19T07:25:07;21.20;99.90
14057;DHT22;7103;54.300;10.180;2022-08-19T07:27:34;21.20;99.90
14057;DHT22;7103;54.300;10.180;2022-08-19T07:30:03;21.20;99.90
14057;DHT22;7103;54.300;10.180;2022-08-19T07:32:31;21.20;99.90
14057;DHT22;7103;54.300;10.180;2022-08-19T07:34:58;21.20;99.90
14057;DHT22;7103;54.300;10.180;2022-08-19T07:37:27;21.10;99.90
14057;DHT22;7103;54.300;10.180;2022-08-19T07:40:00;21.10;99.90
14057;DHT22;7103;54.300;10.180;2022-08-19T07:42:27;21.10;99.90
14057;DHT22;7103;54.300;10.180;2022-08-19T07:44:57;21.00;99.90
14057;DHT22;7103;54.300;10.180;2022-08-19T07:47:24;21.00;99.90
14057;DHT22;7103;54.300;10.180;2022-08-19T07:50:11;21.00;99.90
14057;DHT22;7103;54.300;10.180;2022-08-19T07:52:38;20.80;99.90
14057;DHT22;7103;54.300;10.180;2022-08-19T07:55:08;20.80;99.90
14057;DHT22;7103;54.300;10.180;2022-08-19T07:57:57;20.70;99.90
14057;DHT22;7103;54.300;10.180;2022-08-19T08:00:24;20.70;99.90
14057;DHT22;7103;54.300;10.180;2022-08-19T08:02:51;20.70;99.90
14057;DHT22;7103;54.300;10.180;2022-08-19T08:05:23;20.70;99.90
14057;DHT22;7103;54.300;10.180;2022-08-19T08:08:11;20.70;99.90
14057;DHT22;7103;54.300;10.180;2022-08-19T08:10:58;20.60;99.90
14057;DHT22;7103;54.300;10.180;2022-08-19T08:13:25;20.50;99.90
14057;DHT22;7103;54.300;10.180;2022-08-19T08:15:53;20.40;99.90
14057;DHT22;7103;54.300;10.180;2022-08-19T08:18:23;20.50;99.90
14057;DHT22;7103;54.300;10.180;2022-08-19T08:20:55;20.40;99.90
14057;DHT22;7103;54.300;10.180;2022-08-19T08:23:23;20.40;99.90
14057;DHT22;7103;54.300;10.180;2022-08-19T08:25:55;20.30;99.90
14057;DHT22;7103;54.300;10.180;2022-08-19T08:28:24;20.20;99.90
14057;DHT22;7103;54.300;10.180;2022-08-19T08:30:56;20.20;99.90
14057;DHT22;7103;54.300;10.180;2022-08-19T08:33:26;20.30;99.90
14057;DHT22;7103;54.300;10.180;2022-08-19T08:36:10;20.30;99.90
14057;DHT22;7103;54.300;10.180;2022-08-19T08:38:38;20.20;99.90
14057;DHT22;7103;54.300;10.180;2022-08-19T08:43:57;20.30;99.90
14057;DHT22;7103;54.300;10.180;2022-08-19T08:46:26;20.20;99.90
14057;DHT22;7103;54.300;10.180;2022-08-19T08:51:34;20.20;99.90
14057;DHT22;7103;54.300;10.180;2022-08-19T08:54:06;20.20;99.90
14057;DHT22;7103;54.300;10.180;2022-08-19T08:56:38;20.20;99.90
14057;DHT22;7103;54.300;10.180;2022-08-19T08:59:28;20.30;99.90
14057;DHT22;7103;54.300;10.180;2022-08-19T09:01:58;20.40;99.90
14057;DHT22;7103;54.300;10.180;2022-08-19T09:04:25;20.40;99.90
14057;DHT22;7103;54.300;10.180;2022-08-19T09:07:38;20.40;99.90
14057;DHT22;7103;54.300;10.180;2022-08-19T09:10:37;20.50;99.90
14057;DHT22;7103;54.300;10.180;2022-08-19T09:16:13;20.70;99.90
14057;DHT22;7103;54.300;10.180;2022-08-19T09:18:42;20.60;99.90
14057;DHT22;7103;54.300;10.180;2022-08-19T09:21:09;20.80;99.90
14057;DHT22;7103;54.300;10.180;2022-08-19T09:23:37;20.80;99.90
14057;DHT22;7103;54.300;10.180;2022-08-19T09:26:13;20.80;99.90
14057;DHT22;7103;54.300;10.180;2022-08-19T09:28:44;20.90;99.90
14057;DHT22;7103;54.300;10.180;2022-08-19T09:31:20;20.90;99.90
14057;DHT22;7103;54.300;10.180;2022-08-19T09:33:47;20.90;99.90
14057;DHT22;7103;54.300;10.180;2022-08-19T09:36:20;20.90;99.90
14057;DHT22;7103;54.300;10.180;2022-08-19T09:39:02;20.90;99.90
14057;DHT22;7103;54.300;10.180;2022-08-19T09:41:41;20.80;99.90
14057;DHT22;7103;54.300;10.180;2022-08-19T09:44:13;20.80;99.90
14057;DHT22;7103;54.300;10.180;2022-08-19T09:46:40;20.70;99.90
14057;DHT22;7103;54.300;10.180;2022-08-19T09:49:07;20.60;99.90
14057;DHT22;7103;54.300;10.180;2022-08-19T09:51:34;20.60;99.90
14057;DHT22;7103;54.300;10.180;2022-08-19T09:54:02;20.50;99.90
14057;DHT22;7103;54.300;10.180;2022-08-19T09:56:31;20.50;99.90
14057;DHT22;7103;54.300;10.180;2022-08-19T09:59:01;20.50;99.90
14057;DHT22;7103;54.300;10.180;2022-08-19T10:01:29;20.50;99.90
14057;DHT22;7103;54.300;10.180;2022-08-19T10:03:59;20.50;99.90
14057;DHT22;7103;54.300;10.180;2022-08-19T10:06:28;20.50;99.90
14057;DHT22;7103;54.300;10.180;2022-08-19T10:09:14;20.50;99.90
14057;DHT22;7103;54.300;10.180;2022-08-19T10:11:42;20.50;99.90
14057;DHT22;7103;54.300;10.180;2022-08-19T10:14:20;20.50;99.90
14057;DHT22;7103;54.300;10.180;2022-08-19T10:16:49;20.40;99.90
14057;DHT22;7103;54.300;10.180;2022-08-19T10:19:18;20.40;99.90
14057;DHT22;7103;54.300;10.180;2022-08-19T10:21:52;20.30;99.90
14057;DHT22;7103;54.300;10.180;2022-08-19T10:24:25;20.20;99.90
14057;DHT22;7103;54.300;10.180;2022-08-19T10:26:54;20.20;99.90
14057;DHT22;7103;54.300;10.180;2022-08-19T10:29:26;20.20;99.90
14057;DHT22;7103;54.300;10.180;2022-08-19T10:32:04;20.20;99.90
14057;DHT22;7103;54.300;10.180;2022-08-19T10:34:39;20.30;99.90
14057;DHT22;7103;54.300;10.180;2022-08-19T10:37:15;20.40;99.90
14057;DHT22;7103;54.300;10.180;2022-08-19T10:39:54;20.40;99.90
14057;DHT22;7103;54.300;10.180;2022-08-19T10:42:21;20.30;99.90
14057;DHT22;7103;54.300;10.180;2022-08-19T10:44:48;20.30;99.90
14057;DHT22;7103;54.300;10.180;2022-08-19T10:47:18;20.40;99.90
14057;DHT22;7103;54.300;10.180;2022-08-19T10:49:54;20.50;99.90
14057;DHT22;7103;54.300;10.180;2022-08-19T10:52:45;20.50;99.90
14057;DHT22;7103;54.300;10.180;2022-08-19T10:55:21;20.50;99.90
14057;DHT22;7103;54.300;10.180;2022-08-19T10:58:15;20.60;99.90
14057;DHT22;7103;54.300;10.180;2022-08-19T11:00:43;20.70;99.90
14057;DHT22;7103;54.300;10.180;2022-08-19T11:03:17;20.80;99.90
14057;DHT22;7103;54.300;10.180;2022-08-19T11:05:45;20.80;99.90
14057;DHT22;7103;54.300;10.180;2022-08-19T11:08:11;20.90;99.90
14057;DHT22;7103;54.300;10.180;2022-08-19T11:10:52;20.90;99.90
14057;DHT22;7103;54.300;10.180;2022-08-19T11:13:22;20.90;99.90
14057;DHT22;7103;54.300;10.180;2022-08-19T11:16:17;21.00;99.90
14057;DHT22;7103;54.300;10.180;2022-08-19T11:18:46;21.00;99.90
14057;DHT22;7103;54.300;10.180;2022-08-19T11:21:20;21.10;99.90
14057;DHT22;7103;54.300;10.180;2022-08-19T11:23:56;21.20;99.90
14057;DHT22;7103;54.300;10.180;2022-08-19T11:26:24;21.20;99.90
14057;DHT22;7103;54.300;10.180;2022-08-19T11:28:51;21.40;99.90
14057;DHT22;7103;54.300;10.180;2022-08-19T11:31:23;21.40;99.90
14057;DHT22;7103;54.300;10.180;2022-08-19T11:33:57;21.40;99.90
14057;DHT22;7103;54.300;10.180;2022-08-19T11:36:24;21.30;99.90
14057;DHT22;7103;54.300;10.180;2022-08-19T11:38:51;21.40;99.90
14057;DHT22;7103;54.300;10.180;2022-08-19T11:41:21;21.40;99.90
14057;DHT22;7103;54.300;10.180;2022-08-19T11:43:50;21.50;98.80
14057;DHT22;7103;54.300;10.180;2022-08-19T11:46:21;21.60;94.90
14057;DHT22;7103;54.300;10.180;2022-08-19T11:48:49;21.50;88.70
14057;DHT22;7103;54.300;10.180;2022-08-19T11:51:20;21.40;88.60
14057;DHT22;7103;54.300;10.180;2022-08-19T11:53:48;21.30;96.80
14057;DHT22;7103;54.300;10.180;2022-08-19T11:56:18;21.40;99.90
14057;DHT22;7103;54.300;10.180;2022-08-19T11:58:45;21.40;99.90
14057;DHT22;7103;54.300;10.180;2022-08-19T12:01:14;21.40;99.90
14057;DHT22;7103;54.300;10.180;2022-08-19T12:03:47;21.50;95.70
14057;DHT22;7103;54.300;10.180;2022-08-19T12:06:19;21.50;99.60
14057;DHT22;7103;54.300;10.180;2022-08-19T12:08:46;21.40;96.50
14057;DHT22;7103;54.300;10.180;2022-08-19T12:11:14;21.40;99.90
14057;DHT22;7103;54.300;10.180;2022-08-19T12:13:41;21.30;99.90
14057;DHT22;7103;54.300;10.180;2022-08-19T12:16:26;21.40;98.10
14057;DHT22;7103;54.300;10.180;2022-08-19T12:18:55;21.40;88.60
14057;DHT22;7103;54.300;10.180;2022-08-19T12:21:25;21.30;98.30
14057;DHT22;7103;54.300;10.180;2022-08-19T12:23:56;21.20;96.80
14057;DHT22;7103;54.300;10.180;2022-08-19T12:26:25;21.20;99.90
14057;DHT22;7103;54.300;10.180;2022-08-19T12:28:52;21.10;99.90
14057;DHT22;7103;54.300;10.180;2022-08-19T12:31:20;21.20;99.90
14057;DHT22;7103;54.300;10.180;2022-08-19T12:33:47;21.30;98.90
14057;DHT22;7103;54.300;10.180;2022-08-19T12:36:15;21.20;97.40
14057;DHT22;7103;54.300;10.180;2022-08-19T12:38:42;21.30;97.50
14057;DHT22;7103;54.300;10.180;2022-08-19T12:41:14;21.20;95.50
14057;DHT22;7103;54.300;10.180;2022-08-19T12:43:41;21.20;99.60
14057;DHT22;7103;54.300;10.180;2022-08-19T12:46:09;21.10;99.70
14057;DHT22;7103;54.300;10.180;2022-08-19T12:48:37;21.00;99.90
14057;DHT22;7103;54.300;10.180;2022-08-19T12:51:09;21.00;99.90
14057;DHT22;7103;54.300;10.180;2022-08-19T12:53:37;21.00;99.90
14057;DHT22;7103;54.300;10.180;2022-08-19T12:56:06;21.00;99.90
14057;DHT22;7103;54.300;10.180;2022-08-19T12:58:38;21.10;99.90
14057;DHT22;7103;54.300;10.180;2022-08-19T13:01:14;21.20;99.90
14057;DHT22;7103;54.300;10.180;2022-08-19T13:03:45;21.20;99.90
14057;DHT22;7103;54.300;10.180;2022-08-19T13:06:12;21.10;99.90
14057;DHT22;7103;54.300;10.180;2022-08-19T13:08:44;21.20;99.90
14057;DHT22;7103;54.300;10.180;2022-08-19T13:11:15;21.20;99.90
14057;DHT22;7103;54.300;10.180;2022-08-19T13:13:44;21.30;99.90
14057;DHT22;7103;54.300;10.180;2022-08-19T13:16:12;21.30;99.90
14057;DHT22;7103;54.300;10.180;2022-08-19T13:18:40;21.30;99.90
14057;DHT22;7103;54.300;10.180;2022-08-19T13:21:09;21.30;99.50
14057;DHT22;7103;54.300;10.180;2022-08-19T13:23:38;21.30;99.40
14057;DHT22;7103;54.300;10.180;2022-08-19T13:26:07;21.30;99.90
14057;DHT22;7103;54.300;10.180;2022-08-19T13:28:34;21.30;99.90
14057;DHT22;7103;54.300;10.180;2022-08-19T13:31:26;21.40;99.90
14057;DHT22;7103;54.300;10.180;2022-08-19T13:34:13;21.40;99.90
14057;DHT22;7103;54.300;10.180;2022-08-19T13:36:40;21.50;99.90
14057;DHT22;7103;54.300;10.180;2022-08-19T13:39:07;21.60;92.80
14057;DHT22;7103;54.300;10.180;2022-08-19T13:41:36;21.60;88.90
14057;DHT22;7103;54.300;10.180;2022-08-19T13:44:06;21.50;88.70
14057;DHT22;7103;54.300;10.180;2022-08-19T13:46:33;21.60;93.60
14057;DHT22;7103;54.300;10.180;2022-08-19T13:49:00;21.70;80.80
14057;DHT22;7103;54.300;10.180;2022-08-19T13:51:27;21.80;63.50
14057;DHT22;7103;54.300;10.180;2022-08-19T13:53:53;21.90;39.40
14057;DHT22;7103;54.300;10.180;2022-08-19T13:56:22;21.90;48.70
14057;DHT22;7103;54.300;10.180;2022-08-19T13:58:52;22.00;27.60
14057;DHT22;7103;54.300;10.180;2022-08-19T14:01:21;22.10;8.80
14057;DHT22;7103;54.300;10.180;2022-08-19T14:03:50;22.00;7.00
14057;DHT22;7103;54.300;10.180;2022-08-19T14:06:18;21.90;2.10
14057;DHT22;7103;54.300;10.180;2022-08-19T14:08:45;21.80;3.70
14057;DHT22;7103;54.300;10.180;2022-08-19T14:11:12;21.80;22.10
14057;DHT22;7103;54.300;10.180;2022-08-19T14:13:39;21.80;21.80
14057;DHT22;7103;54.300;10.180;2022-08-19T14:16:11;21.70;12.40
14057;DHT22;7103;54.300;10.180;2022-08-19T14:18:38;21.70;16.70
14057;DHT22;7103;54.300;10.180;2022-08-19T14:21:06;21.70;11.20
14057;DHT22;7103;54.300;10.180;2022-08-19T14:23:34;21.70;12.60
14057;DHT22;7103;54.300;10.180;2022-08-19T14:26:04;21.70;26.30
14057;DHT22;7103;54.300;10.180;2022-08-19T14:28:31;21.70;29.70
14057;DHT22;7103;54.300;10.180;2022-08-19T14:30:58;21.70;29.70
14057;DHT22;7103;54.300;10.180;2022-08-19T14:33:25;21.70;33.50
14057;DHT22;7103;54.300;10.180;2022-08-19T14:35:56;21.70;29.80
14057;DHT22;7103;54.300;10.180;2022-08-19T14:38:26;21.70;29.70
14057;DHT22;7103;54.300;10.180;2022-08-19T14:41:18;21.70;29.70
14057;DHT22;7103;54.300;10.180;2022-08-19T14:43:47;21.60;29.90
14057;DHT22;7103;54.300;10.180;2022-08-19T14:46:16;21.50;56.10
14057;DHT22;7103;54.300;10.180;2022-08-19T14:48:43;21.50;77.90
14057;DHT22;7103;54.300;10.180;2022-08-19T14:51:10;21.40;86.60
14057;DHT22;7103;54.300;10.180;2022-08-19T14:53:37;21.50;92.60
14057;DHT22;7103;54.300;10.180;2022-08-19T14:56:13;21.50;92.40
14057;DHT22;7103;54.300;10.180;2022-08-19T14:58:44;21.50;93.70
14057;DHT22;7103;54.300;10.180;2022-08-19T15:01:11;21.60;93.70
14057;DHT22;7103;54.300;10.180;2022-08-19T15:03:39;21.70;93.20
14057;DHT22;7103;54.300;10.180;2022-08-19T15:06:08;21.70;84.70
14057;DHT22;7103;54.300;10.180;2022-08-19T15:08:40;21.80;76.80
14057;DHT22;7103;54.300;10.180;2022-08-19T15:11:09;21.90;76.60
14057;DHT22;7103;54.300;10.180;2022-08-19T15:13:36;22.00;52.60
14057;DHT22;7103;54.300;10.180;2022-08-19T15:16:03;22.30;56.40
14057;DHT22;7103;54.300;10.180;2022-08-19T15:18:31;22.50;30.40
14057;DHT22;7103;54.300;10.180;2022-08-19T15:20:59;22.70;1.20
14057;DHT22;7103;54.300;10.180;2022-08-19T15:23:26;22.70;1.00
14057;DHT22;7103;54.300;10.180;2022-08-19T15:25:53;22.70;1.00
14057;DHT22;7103;54.300;10.180;2022-08-19T15:28:23;22.70;1.00
14057;DHT22;7103;54.300;10.180;2022-08-19T15:30:50;22.80;1.00
14057;DHT22;7103;54.300;10.180;2022-08-19T15:33:19;22.80;1.00
14057;DHT22;7103;54.300;10.180;2022-08-19T15:35:47;22.70;1.00
14057;DHT22;7103;54.300;10.180;2022-08-19T15:38:17;22.60;1.00
14057;DHT22;7103;54.300;10.180;2022-08-19T15:40:50;22.50;1.00
14057;DHT22;7103;54.300;10.180;2022-08-19T15:43:18;22.50;1.00
14057;DHT22;7103;54.300;10.180;2022-08-19T15:45:48;22.50;1.00
14057;DHT22;7103;54.300;10.180;2022-08-19T15:48:15;22.50;1.00
14057;DHT22;7103;54.300;10.180;2022-08-19T15:50:42;22.40;1.00
14057;DHT22;7103;54.300;10.180;2022-08-19T15:53:10;22.40;1.00
14057;DHT22;7103;54.300;10.180;2022-08-19T15:55:43;22.40;1.00
14057;DHT22;7103;54.300;10.180;2022-08-19T15:58:15;22.50;1.00
14057;DHT22;7103;54.300;10.180;2022-08-19T16:01:04;22.60;1.00